Time;durP1;ratioP1;P1;durP2;ratioP2;P2;SDS_P1;SDS_P2;PMS_P1;PMS_P2;Temp;Humidity;BMP_temperature;BMP_pressure;BME280_temperature;BME280_humidity;BME280_pressure;Samples;Min_cycle;Max_cycle;Signal;HPM_P1;HPM_P2
2022/01/14 00:08:09;;;;;;;0.00;0.00;;;1.60;88.60;;;;;;20886963;28;20102;-52
2022/01/14 00:18:12;;;;;;;0.10;0.00;;;1.60;89.20;;;;;;20885972;28;20079;-52
2022/01/14 00:38:35;;;;;;;0.60;0.00;;;1.30;91.00;;;;;;20884778;28;20103;-53
2022/01/14 00:48:38;;;;;;;0.00;0.00;;;1.30;91.80;;;;;;20884248;28;20094;-56
2022/01/14 01:09:09;;;;;;;0.10;0.00;;;1.50;91.30;;;;;;20883163;28;20033;-51
2022/01/14 01:19:12;;;;;;;0.00;0.00;;;1.50;91.70;;;;;;20882925;28;20033;-54
2022/01/14 01:39:30;;;;;;;0.00;0.00;;;1.60;92.10;;;;;;20882027;28;20056;-53
2022/01/14 01:49:36;;;;;;;0.00;0.00;;;1.60;92.30;;;;;;20881008;28;20033;-53
2022/01/14 01:59:38;;;;;;;0.00;0.00;;;1.80;93.10;;;;;;20646449;28;20542;-51
2022/01/14 02:09:41;;;;;;;0.00;0.00;;;1.80;93.60;;;;;;20642663;28;20487;-52
2022/01/14 02:22:10;;;;;;;0.00;0.00;;;1.90;94.10;;;;;;20658040;28;20058;-54
2022/01/14 02:30:20;;;;;;;0.00;0.00;;;2.00;94.00;;;;;;20708385;28;20069;-52
2022/01/14 02:40:23;;;;;;;0.00;0.00;;;1.90;94.90;;;;;;20835461;28;20052;-58
2022/01/14 02:50:35;;;;;;;0.00;0.00;;;1.90;94.90;;;;;;20909630;28;20044;-52
2022/01/14 03:00:38;;;;;;;0.00;0.00;;;2.10;94.80;;;;;;20925666;28;20107;-56
2022/01/14 03:10:41;;;;;;;0.00;0.00;;;2.20;95.20;;;;;;20907925;28;20489;-52
2022/01/14 03:20:55;;;;;;;0.00;0.00;;;2.20;95.40;;;;;;20907695;28;20033;-53
2022/01/14 03:30:57;;;;;;;0.03;0.00;;;2.20;95.00;;;;;;20907317;28;20037;-53
2022/01/14 03:41:00;;;;;;;0.00;0.00;;;2.30;95.70;;;;;;20907174;28;20067;-55
2022/01/14 03:51:03;;;;;;;0.00;0.00;;;2.20;95.60;;;;;;20904742;28;20037;-56
2022/01/14 04:01:07;;;;;;;0.00;0.00;;;2.10;97.00;;;;;;20904220;28;20037;-53
2022/01/14 04:11:12;;;;;;;0.00;0.00;;;1.90;97.40;;;;;;20904445;28;20380;-53
2022/01/14 04:21:18;;;;;;;0.32;0.00;;;2.10;97.20;;;;;;20886294;28;20029;-55
2022/01/14 04:31:21;;;;;;;0.00;0.00;;;2.20;97.30;;;;;;20901816;28;20114;-56
2022/01/14 04:41:23;;;;;;;0.00;0.00;;;2.20;97.90;;;;;;20901769;28;20553;-53
2022/01/14 04:51:26;;;;;;;0.00;0.00;;;2.20;98.00;;;;;;20917329;28;20033;-54
2022/01/14 05:01:29;;;;;;;0.00;0.00;;;1.90;98.60;;;;;;20900409;28;20485;-52
2022/01/14 05:11:40;;;;;;;0.00;0.00;;;1.70;99.20;;;;;;20916455;28;20086;-54
2022/01/14 05:21:45;;;;;;;0.00;0.00;;;2.10;98.80;;;;;;20900090;28;20110;-57
2022/01/14 05:31:51;;;;;;;0.00;0.00;;;2.40;98.50;;;;;;20898842;28;20396;-53
2022/01/14 05:41:55;;;;;;;0.00;0.00;;;2.50;98.10;;;;;;20913546;28;20086;-56
2022/01/14 05:51:57;;;;;;;0.00;0.00;;;2.40;98.80;;;;;;20913964;28;20033;-51
2022/01/14 06:02:02;;;;;;;0.00;0.00;;;2.40;99.60;;;;;;20913458;28;20049;-51
2022/01/14 06:12:05;;;;;;;0.00;0.00;;;2.20;99.60;;;;;;20929634;28;20477;-54
2022/01/14 06:22:09;;;;;;;0.00;0.00;;;2.10;99.80;;;;;;20911868;28;20083;-52
2022/01/14 06:32:11;;;;;;;0.00;0.00;;;2.20;99.90;;;;;;20894830;28;20032;-55
2022/01/14 06:42:14;;;;;;;0.00;0.00;;;2.40;98.50;;;;;;20893902;28;20451;-56
2022/01/14 06:52:17;;;;;;;0.00;0.00;;;2.50;97.30;;;;;;20892467;28;20037;-55
2022/01/14 07:02:20;;;;;;;0.00;0.00;;;2.60;96.80;;;;;;20892519;28;20618;-55
2022/01/14 07:12:31;;;;;;;0.00;0.00;;;2.60;96.50;;;;;;20891672;28;20037;-55
2022/01/14 07:22:33;;;;;;;0.00;0.00;;;2.50;97.50;;;;;;20890887;28;20044;-51
2022/01/14 07:32:37;;;;;;;0.00;0.00;;;2.70;96.20;;;;;;20889994;28;20033;-55
2022/01/14 07:42:40;;;;;;;0.00;0.00;;;3.00;96.70;;;;;;20905772;28;20063;-56
2022/01/14 07:52:42;;;;;;;0.00;0.00;;;3.40;97.00;;;;;;20888284;28;20078;-55
2022/01/14 08:02:45;;;;;;;0.00;0.00;;;3.80;97.10;;;;;;20886905;28;20032;-54
2022/01/14 08:12:47;;;;;;;0.10;0.00;;;4.50;96.50;;;;;;20886448;28;20369;-55
2022/01/14 08:22:50;;;;;;;0.00;0.00;;;5.30;94.80;;;;;;20886335;28;20377;-51
2022/01/14 08:32:53;;;;;;;0.00;0.00;;;6.30;93.30;;;;;;20885252;28;20078;-53
2022/01/14 08:42:56;;;;;;;0.00;0.00;;;7.00;90.90;;;;;;20884630;28;20067;-54
2022/01/14 08:52:59;;;;;;;0.00;0.00;;;7.60;89.30;;;;;;20884149;28;20098;-53
2022/01/14 09:03:06;;;;;;;0.00;0.00;;;8.20;86.70;;;;;;20883315;28;20461;-52
2022/01/14 09:13:09;;;;;;;0.55;0.00;;;8.80;83.70;;;;;;20883139;28;20064;-54
2022/01/14 09:23:17;;;;;;;0.08;0.00;;;9.50;79.60;;;;;;20883273;28;20106;-54
2022/01/14 09:33:21;;;;;;;0.00;0.00;;;10.20;77.90;;;;;;20882328;28;20037;-54
2022/01/14 09:43:25;;;;;;;0.00;0.00;;;10.90;77.00;;;;;;20898640;28;20037;-55
2022/01/14 09:53:29;;;;;;;0.00;0.00;;;11.50;72.50;;;;;;20897936;28;20099;-55
2022/01/14 10:03:31;;;;;;;0.25;0.00;;;12.00;69.00;;;;;;20881192;28;20186;-54
2022/01/14 10:13:35;;;;;;;0.00;0.00;;;12.10;69.30;;;;;;20881063;28;20388;-57
2022/01/14 10:23:52;;;;;;;0.47;0.00;;;12.50;69.80;;;;;;20886887;28;20053;-55
2022/01/14 10:34:10;;;;;;;0.00;0.00;;;13.30;64.90;;;;;;20894501;28;20040;-55
2022/01/14 10:44:34;;;;;;;1.00;0.10;;;13.60;63.60;;;;;;20891357;28;20404;-55
2022/01/14 10:54:48;;;;;;;0.10;0.00;;;14.00;59.10;;;;;;20893389;28;20396;-54
2022/01/14 11:05:15;;;;;;;0.10;0.00;;;14.30;61.30;;;;;;20892848;28;20102;-57
2022/01/14 11:15:20;;;;;;;0.13;0.10;;;14.60;57.40;;;;;;20883240;28;20045;-55
2022/01/14 11:25:23;;;;;;;0.10;0.00;;;14.70;56.80;;;;;;20890930;28;20508;-58
2022/01/14 11:35:26;;;;;;;0.05;0.05;;;14.90;57.10;;;;;;20889962;28;20083;-56
2022/01/14 11:45:47;;;;;;;0.17;0.00;;;15.00;55.30;;;;;;20906094;28;20044;-54
2022/01/14 11:55:50;;;;;;;0.10;0.10;;;15.00;55.40;;;;;;20905636;28;20067;-56
2022/01/14 12:06:01;;;;;;;0.00;0.00;;;15.00;54.10;;;;;;20888504;28;20561;-59
2022/01/14 12:26:52;;;;;;;2.50;0.40;;;15.00;56.70;;;;;;20671928;28;20061;-57
2022/01/14 12:36:55;;;;;;;0.00;0.00;;;15.20;53.80;;;;;;20714610;28;20457;-58
2022/01/14 12:47:07;;;;;;;0.20;0.00;;;15.00;53.50;;;;;;20713837;28;20068;-59
2022/01/14 12:57:16;;;;;;;0.10;0.00;;;14.80;56.60;;;;;;20733784;28;20045;-57
2022/01/14 13:07:25;;;;;;;0.35;0.10;;;14.70;56.80;;;;;;20819783;28;20485;-55
2022/01/14 13:17:30;;;;;;;0.10;0.00;;;14.60;56.90;;;;;;20820278;28;20049;-55
2022/01/14 13:27:40;;;;;;;0.20;0.10;;;13.90;53.70;;;;;;20818585;28;20460;-57
2022/01/14 13:37:44;;;;;;;1.52;0.20;;;13.00;57.90;;;;;;20841165;28;20041;-54
2022/01/14 13:47:57;;;;;;;0.40;0.20;;;12.50;59.20;;;;;;20881714;28;20064;-58
2022/01/14 13:58:11;;;;;;;0.60;0.20;;;12.00;58.40;;;;;;20888288;28;20040;-58
2022/01/14 14:18:22;;;;;;;0.22;0.13;;;11.20;60.50;;;;;;20896401;28;20037;-57
2022/01/14 14:28:29;;;;;;;0.80;0.20;;;11.20;58.50;;;;;;20912034;28;20099;-57
2022/01/14 14:38:35;;;;;;;;;;;11.10;62.30;;;;;;20895633;28;20118;-53
2022/01/14 14:48:39;;;;;;;0.38;0.20;;;10.50;67.30;;;;;;20894449;28;20438;-55
2022/01/14 14:58:42;;;;;;;0.03;0.00;;;10.10;71.60;;;;;;20894055;28;20103;-58
2022/01/14 15:08:47;;;;;;;0.00;0.00;;;9.80;71.90;;;;;;20892109;28;20554;-57
2022/01/14 15:18:50;;;;;;;0.00;0.00;;;9.50;70.30;;;;;;20891718;28;20508;-54
2022/01/14 15:28:55;;;;;;;0.00;0.00;;;8.50;74.00;;;;;;20890982;28;20118;-54
2022/01/14 15:38:58;;;;;;;0.10;0.00;;;7.20;80.20;;;;;;20890257;28;20040;-54
2022/01/14 15:49:01;;;;;;;0.35;0.10;;;6.50;83.10;;;;;;20889058;28;20037;-52
2022/01/14 15:59:07;;;;;;;1.50;0.47;;;6.20;84.30;;;;;;20889082;28;20446;-56
2022/01/14 16:09:10;;;;;;;1.30;0.50;;;6.00;84.70;;;;;;20888044;28;20102;-54
2022/01/14 16:19:13;;;;;;;0.08;0.00;;;5.80;86.80;;;;;;20883676;28;20033;-56
2022/01/14 16:29:18;;;;;;;0.00;0.00;;;5.70;87.70;;;;;;20885891;28;20049;-53
2022/01/14 16:39:21;;;;;;;0.10;0.00;;;5.80;87.00;;;;;;20885972;28;20098;-52
2022/01/14 16:49:24;;;;;;;0.00;0.00;;;5.90;86.90;;;;;;20884476;28;20172;-53
2022/01/14 16:59:26;;;;;;;0.00;0.00;;;6.00;86.30;;;;;;20883813;28;20036;-52
2022/01/14 17:09:29;;;;;;;0.32;0.00;;;5.90;86.40;;;;;;20884453;28;20033;-55
2022/01/14 17:19:33;;;;;;;0.10;0.00;;;5.70;87.70;;;;;;20883041;28;20040;-53
2022/01/14 17:29:36;;;;;;;0.20;0.00;;;5.90;86.90;;;;;;20885095;28;20045;-55
2022/01/14 17:39:39;;;;;;;0.00;0.00;;;6.00;87.40;;;;;;20898792;28;20110;-52
2022/01/14 17:49:42;;;;;;;0.00;0.00;;;6.00;87.90;;;;;;20898418;28;20396;-53
2022/01/14 17:59:45;;;;;;;0.00;0.00;;;5.80;88.30;;;;;;20897434;28;20063;-52
2022/01/14 18:09:48;;;;;;;0.00;0.00;;;5.80;88.00;;;;;;20896965;28;20432;-54
2022/01/14 18:19:51;;;;;;;0.00;0.00;;;5.70;88.60;;;;;;20896184;28;20443;-55
2022/01/14 18:29:53;;;;;;;0.00;0.00;;;5.60;89.00;;;;;;20878842;28;20578;-54
2022/01/14 18:39:57;;;;;;;0.15;0.00;;;5.50;89.30;;;;;;20894393;28;20060;-53
2022/01/14 18:50:00;;;;;;;0.00;0.00;;;5.50;89.30;;;;;;20893872;28;20440;-54
2022/01/14 19:00:07;;;;;;;0.00;0.00;;;5.30;90.50;;;;;;20892838;28;20431;-57
2022/01/14 19:10:11;;;;;;;0.00;0.00;;;5.30;89.70;;;;;;20892158;28;20090;-54
2022/01/14 19:20:15;;;;;;;0.08;0.00;;;5.70;90.00;;;;;;20907957;28;20432;-52
2022/01/14 19:30:19;;;;;;;0.10;0.00;;;5.80;86.40;;;;;;20893049;28;20562;-55
2022/01/14 19:40:22;;;;;;;0.08;0.00;;;6.30;85.10;;;;;;20906658;28;20029;-53
2022/01/14 19:50:25;;;;;;;0.10;0.00;;;7.40;80.10;;;;;;20905742;28;20041;-54
2022/01/14 20:00:28;;;;;;;0.00;0.00;;;8.20;77.30;;;;;;20904782;28;20130;-54
2022/01/14 20:10:31;;;;;;;0.20;0.00;;;8.40;76.20;;;;;;20905939;28;20037;-54
2022/01/14 20:20:35;;;;;;;0.20;0.00;;;8.50;75.50;;;;;;20903809;28;20037;-52
2022/01/14 20:30:39;;;;;;;0.00;0.00;;;8.80;74.70;;;;;;20903110;28;20189;-52
2022/01/14 20:40:43;;;;;;;0.00;0.00;;;9.10;74.20;;;;;;20902113;28;20040;-57
2022/01/14 20:50:49;;;;;;;0.00;0.00;;;8.90;73.10;;;;;;20902319;28;20154;-53
2022/01/14 21:00:51;;;;;;;0.00;0.00;;;9.20;73.00;;;;;;20900736;28;20041;-52
2022/01/14 21:10:54;;;;;;;0.25;0.00;;;8.80;74.00;;;;;;20915942;28;20040;-57
2022/01/14 21:20:57;;;;;;;0.00;0.00;;;8.90;72.30;;;;;;20899670;28;20037;-55
2022/01/14 21:31:00;;;;;;;0.80;0.00;;;8.90;73.00;;;;;;20899242;28;20095;-53
2022/01/14 21:41:03;;;;;;;0.00;0.00;;;8.90;73.00;;;;;;20898637;28;20033;-53
2022/01/14 21:51:06;;;;;;;0.08;0.00;;;8.80;73.40;;;;;;20898781;28;20102;-54
2022/01/14 22:01:09;;;;;;;0.00;0.00;;;8.80;73.70;;;;;;20897909;28;20033;-56
2022/01/14 22:11:12;;;;;;;0.00;0.00;;;8.90;73.70;;;;;;20898752;28;20090;-57
2022/01/14 22:21:15;;;;;;;0.00;0.00;;;8.90;73.20;;;;;;20907065;28;20497;-53
2022/01/14 22:31:19;;;;;;;0.30;0.00;;;8.20;74.60;;;;;;20928596;28;20045;-53
2022/01/14 22:41:25;;;;;;;0.00;0.00;;;8.20;75.10;;;;;;20879208;28;20120;-53
2022/01/14 22:51:30;;;;;;;0.00;0.00;;;8.10;74.10;;;;;;20910207;28;20041;-53
2022/01/14 23:01:33;;;;;;;0.00;0.00;;;8.40;74.10;;;;;;20909401;28;20091;-53
2022/01/14 23:11:37;;;;;;;0.00;0.00;;;8.40;75.30;;;;;;20908629;28;20033;-54
2022/01/14 23:21:40;;;;;;;0.00;0.00;;;8.30;74.50;;;;;;20908147;28;20032;-54
2022/01/14 23:31:42;;;;;;;0.22;0.00;;;8.50;73.80;;;;;;20906764;28;20057;-55
2022/01/14 23:41:46;;;;;;;0.00;0.00;;;8.70;73.30;;;;;;20906364;28;20032;-53
2022/01/14 23:51:49;;;;;;;0.00;0.00;;;8.50;73.60;;;;;;20922338;28;20041;-53
